createdAt,value
2022-08-17T00:00:42.590Z,100000.31
2022-08-17T00:03:13.617Z,100035.84
2022-08-17T00:05:45.609Z,100004.72
2022-08-17T00:08:17.808Z,100001.16
2022-08-17T00:10:50.254Z,100030.69
2022-08-17T00:13:21.503Z,100024.47
2022-08-17T00:15:50.346Z,100030.69
2022-08-17T00:19:06.459Z,100041.25
2022-08-17T00:21:10.271Z,100038.00
2022-08-17T00:23:46.214Z,100020.03
2022-08-17T00:26:43.716Z,99996.94
2022-08-17T00:29:09.201Z,99984.56
2022-08-17T00:31:38.230Z,99987.66
2022-08-17T00:34:08.924Z,99986.34
2022-08-17T00:36:38.120Z,100015.97
2022-08-17T00:39:08.034Z,100016.28
2022-08-17T00:41:36.819Z,99995.97
2022-08-17T00:44:12.486Z,99980.19
2022-08-17T00:46:43.008Z,100005.91
2022-08-17T00:49:14.202Z,99975.44
2022-08-17T00:51:47.862Z,99972.47
2022-08-17T00:54:24.067Z,100010.69
2022-08-17T00:57:00.171Z,100008.78
2022-08-17T00:59:32.910Z,99957.81
2022-08-17T01:02:10.315Z,99999.41
2022-08-17T01:04:40.026Z,99988.97
2022-08-17T01:07:11.358Z,99918.81
2022-08-17T01:09:42.852Z,99966.91
2022-08-17T01:12:13.480Z,99953.28
2022-08-17T01:14:42.663Z,99963.78
2022-08-17T01:17:12.288Z,99979.41
2022-08-17T01:19:43.179Z,99987.47
2022-08-17T01:22:21.932Z,99984.00
2022-08-17T01:24:54.419Z,99983.03
2022-08-17T01:27:23.490Z,99983.69
2022-08-17T01:29:59.000Z,99990.94
2022-08-17T01:32:28.866Z,100000.47
2022-08-17T01:35:00.867Z,99998.38
2022-08-17T01:37:34.560Z,100000.56
2022-08-17T01:40:06.987Z,99996.25
2022-08-17T01:42:41.089Z,99989.31
2022-08-17T01:45:13.567Z,99986.06
2022-08-17T01:47:42.297Z,99947.19
2022-08-17T01:50:14.930Z,99989.00
2022-08-17T01:52:46.690Z,99985.25
2022-08-17T01:55:18.480Z,99974.59
2022-08-17T01:57:47.384Z,99969.31
2022-08-17T02:00:16.411Z,99977.41
2022-08-17T02:02:45.924Z,99971.81
2022-08-17T02:05:14.622Z,99977.47
2022-08-17T02:07:59.821Z,99981.78
2022-08-17T02:10:33.988Z,99969.84
2022-08-17T02:13:04.400Z,99963.03
2022-08-17T02:15:34.795Z,99952.41
2022-08-17T02:18:03.553Z,99971.34
2022-08-17T02:20:41.750Z,99975.63
2022-08-17T02:23:14.565Z,99973.16
2022-08-17T02:25:45.764Z,99979.19
2022-08-17T02:28:15.804Z,99950.16
2022-08-17T02:30:59.096Z,99933.63
2022-08-17T02:33:41.831Z,99942.75
2022-08-17T02:36:11.814Z,99956.28
2022-08-17T02:38:42.558Z,99971.56
2022-08-17T02:41:13.217Z,99941.69
2022-08-17T02:43:42.048Z,99979.88
2022-08-17T02:46:11.283Z,99956.94
2022-08-17T02:48:40.105Z,99962.06
2022-08-17T02:51:09.309Z,99968.19
2022-08-17T02:53:37.868Z,99952.94
2022-08-17T02:56:08.373Z,99939.97
2022-08-17T02:58:37.054Z,99938.59
2022-08-17T03:01:07.517Z,99970.75
2022-08-17T03:03:36.909Z,99958.91
2022-08-17T03:06:07.802Z,99973.91
2022-08-17T03:08:37.636Z,99983.34
2022-08-17T03:11:08.005Z,99960.69
2022-08-17T03:13:36.500Z,99989.31
2022-08-17T03:16:05.639Z,99959.72
2022-08-17T03:18:34.243Z,99978.41
2022-08-17T03:21:04.605Z,99964.31
2022-08-17T03:23:33.904Z,99989.75
2022-08-17T03:26:02.928Z,99943.03
2022-08-17T03:28:33.531Z,99949.00
2022-08-17T03:31:02.534Z,99966.97
2022-08-17T03:33:31.642Z,99987.22
2022-08-17T03:36:00.513Z,99978.34
2022-08-17T03:38:29.115Z,99997.84
2022-08-17T03:41:08.095Z,99996.00
2022-08-17T03:43:37.999Z,100002.59
2022-08-17T03:46:28.201Z,99947.25
2022-08-17T03:49:21.451Z,100004.78
2022-08-17T03:52:07.717Z,99990.22
2022-08-17T03:54:53.857Z,100011.50
2022-08-17T03:57:22.619Z,99994.91
2022-08-17T03:59:52.686Z,99982.38
2022-08-17T04:02:25.072Z,99964.78
2022-08-17T04:04:54.339Z,99973.75
2022-08-17T04:07:26.123Z,99979.03
2022-08-17T04:09:54.787Z,99974.38
2022-08-17T04:12:31.158Z,99989.91
2022-08-17T04:15:01.346Z,99958.44
2022-08-17T04:17:30.661Z,99990.50
2022-08-17T04:19:59.366Z,99962.81
2022-08-17T04:22:32.681Z,99956.16
2022-08-17T04:25:09.480Z,99953.53
2022-08-17T04:27:37.976Z,99941.69
2022-08-17T04:30:09.725Z,99955.97
2022-08-17T04:33:05.221Z,99971.25
2022-08-17T04:35:38.835Z,99937.41
2022-08-17T04:38:08.536Z,99952.13
2022-08-17T04:40:55.046Z,99959.91
2022-08-17T04:43:25.239Z,99954.09
2022-08-17T04:45:58.081Z,99918.81
2022-08-17T04:48:35.299Z,99974.34
2022-08-17T04:51:10.190Z,99990.13
2022-08-17T04:53:40.563Z,99989.81
2022-08-17T04:56:11.790Z,99978.13
2022-08-17T04:58:44.803Z,99983.50
2022-08-17T05:01:15.620Z,99966.59
2022-08-17T05:03:44.804Z,99971.19
2022-08-17T05:06:13.392Z,99962.38
2022-08-17T05:08:42.128Z,99988.75
2022-08-17T05:11:10.714Z,99986.84
2022-08-17T05:13:39.690Z,99925.72
2022-08-17T05:16:09.285Z,99951.25
2022-08-17T05:18:39.705Z,99981.53
2022-08-17T05:21:08.921Z,99931.25
2022-08-17T05:23:42.823Z,99984.94
2022-08-17T05:26:20.412Z,99996.88
2022-08-17T05:28:59.629Z,99989.59
2022-08-17T05:31:30.115Z,99988.94
2022-08-17T05:34:00.030Z,99975.22
2022-08-17T05:36:41.883Z,99988.63
2022-08-17T05:39:16.076Z,99993.75
2022-08-17T05:41:46.765Z,99996.69
2022-08-17T05:44:15.448Z,99969.81
2022-08-17T05:46:48.865Z,99940.13
2022-08-17T05:49:24.727Z,99999.59
2022-08-17T05:52:09.531Z,99985.38
2022-08-17T05:54:50.883Z,99960.56
2022-08-17T05:57:43.417Z,100018.91
2022-08-17T06:00:26.483Z,99961.44
2022-08-17T06:03:23.707Z,100014.31
2022-08-17T06:06:25.325Z,99994.06
2022-08-17T06:09:14.929Z,100007.47
2022-08-17T06:11:53.475Z,100016.28
2022-08-17T06:14:49.176Z,99991.38
2022-08-17T06:17:23.251Z,100005.44
2022-08-17T06:19:55.416Z,100027.63
2022-08-17T06:22:33.600Z,100015.91
2022-08-17T06:25:10.234Z,100020.53
2022-08-17T06:27:44.966Z,100023.22
2022-08-17T06:30:16.800Z,100011.28
2022-08-17T06:32:47.827Z,100003.81
2022-08-17T06:35:19.096Z,99996.31
2022-08-17T06:38:05.982Z,100027.34
2022-08-17T06:41:00.475Z,100045.19
2022-08-17T06:43:47.455Z,100038.16
2022-08-17T06:46:23.452Z,99968.31
2022-08-17T06:49:07.651Z,100035.63
2022-08-17T06:51:40.609Z,100034.63
2022-08-17T06:54:20.677Z,100041.66
2022-08-17T06:56:57.554Z,100030.44
2022-08-17T06:59:55.257Z,99997.59
2022-08-17T07:02:51.529Z,100034.09
2022-08-17T07:05:25.011Z,100030.06
2022-08-17T07:08:04.705Z,100007.28
2022-08-17T07:10:42.815Z,100021.28
2022-08-17T07:13:25.661Z,100022.19
2022-08-17T07:16:00.759Z,100015.34
2022-08-17T07:18:33.216Z,100025.81
2022-08-17T07:21:17.983Z,100021.91
2022-08-17T07:24:02.246Z,100039.19
2022-08-17T07:26:32.327Z,100027.66
2022-08-17T07:29:02.484Z,100025.00
2022-08-17T07:31:33.848Z,100024.59
2022-08-17T07:34:08.535Z,100028.44
2022-08-17T07:36:37.395Z,99999.81
2022-08-17T07:39:06.576Z,100038.81
2022-08-17T07:41:53.253Z,100029.16
2022-08-17T07:44:28.152Z,100047.34
2022-08-17T07:47:14.803Z,100042.16
2022-08-17T07:49:46.439Z,100045.16
2022-08-17T07:52:51.166Z,100007.94
2022-08-17T07:55:29.802Z,100006.31
2022-08-17T07:58:00.794Z,100029.78
2022-08-17T08:00:32.111Z,100004.09
2022-08-17T08:03:06.164Z,100026.91
2022-08-17T08:05:50.391Z,100053.19
2022-08-17T08:08:39.317Z,100043.81
2022-08-17T08:11:12.062Z,100037.66
2022-08-17T08:13:45.886Z,100035.81
2022-08-17T08:16:22.775Z,100032.97
2022-08-17T08:18:56.837Z,100030.28
2022-08-17T08:21:45.807Z,100007.91
2022-08-17T08:24:32.833Z,100013.06
2022-08-17T08:27:11.767Z,99987.59
2022-08-17T08:29:50.274Z,100007.34
2022-08-17T08:32:23.402Z,99993.34
2022-08-17T08:35:03.654Z,100029.47
2022-08-17T08:37:43.817Z,100034.78
2022-08-17T08:40:30.214Z,100027.41
2022-08-17T08:43:10.260Z,99989.00
2022-08-17T08:45:52.860Z,100036.84
2022-08-17T08:48:56.346Z,100040.47
2022-08-17T08:51:37.678Z,100026.16
2022-08-17T08:54:15.800Z,100024.66
2022-08-17T08:57:21.595Z,100020.72
2022-08-17T08:59:57.749Z,100030.03
2022-08-17T09:02:46.992Z,100033.97
2022-08-17T09:05:30.765Z,100039.38
2022-08-17T09:08:06.768Z,100032.09
2022-08-17T09:10:49.622Z,100041.53
2022-08-17T09:13:25.328Z,100041.13
2022-08-17T09:15:59.293Z,100026.34
2022-08-17T09:19:00.389Z,100033.97
2022-08-17T09:21:33.726Z,100030.19
2022-08-17T09:24:12.897Z,100002.44
2022-08-17T09:26:46.988Z,100006.94
2022-08-17T09:29:17.235Z,100046.34
2022-08-17T09:31:53.571Z,100032.41
2022-08-17T09:34:33.382Z,100047.38
2022-08-17T09:37:17.410Z,100016.00
2022-08-17T09:39:53.061Z,100010.47
2022-08-17T09:42:28.384Z,100044.66
2022-08-17T09:45:09.184Z,100033.25
2022-08-17T09:47:45.651Z,100056.53
2022-08-17T09:51:01.598Z,100035.00
2022-08-17T09:53:11.041Z,100044.56
2022-08-17T09:55:58.103Z,99986.59
2022-08-17T09:58:39.038Z,100012.03
2022-08-17T10:01:20.570Z,100001.28
2022-08-17T10:04:09.776Z,99990.47
2022-08-17T10:06:50.294Z,100036.41
2022-08-17T10:09:27.308Z,100042.19
2022-08-17T10:12:20.521Z,100044.56
2022-08-17T10:15:07.749Z,100041.81
2022-08-17T10:17:46.723Z,100003.28
2022-08-17T10:20:21.732Z,100001.91
2022-08-17T10:23:15.039Z,100023.34
2022-08-17T10:26:16.720Z,100028.94
2022-08-17T10:28:52.754Z,100028.53
2022-08-17T10:31:35.695Z,100026.63
2022-08-17T10:34:42.008Z,100024.38
2022-08-17T10:37:32.595Z,100020.69
2022-08-17T10:40:20.497Z,100018.75
2022-08-17T10:42:55.628Z,99990.22
2022-08-17T10:45:28.455Z,99994.22
2022-08-17T10:48:06.163Z,100025.44
2022-08-17T10:50:49.688Z,99983.00
2022-08-17T10:53:54.912Z,100024.28
2022-08-17T10:56:44.160Z,100001.34
2022-08-17T10:59:52.456Z,100020.56
2022-08-17T11:02:28.211Z,100021.69
2022-08-17T11:05:10.053Z,100025.03
2022-08-17T11:07:54.081Z,99943.31
2022-08-17T11:10:46.445Z,100026.66
2022-08-17T11:13:35.788Z,99977.25
2022-08-17T11:16:22.037Z,100007.38
2022-08-17T11:19:19.269Z,100007.78
2022-08-17T11:22:07.994Z,100012.59
2022-08-17T11:24:38.754Z,99980.88
2022-08-17T11:27:13.665Z,99981.63
2022-08-17T11:29:58.063Z,99995.28
2022-08-17T11:32:37.132Z,99972.78
2022-08-17T11:35:22.392Z,100013.84
2022-08-17T11:38:03.048Z,99972.88
2022-08-17T11:40:44.657Z,99974.31
2022-08-17T11:43:50.350Z,100008.38
2022-08-17T11:46:54.168Z,99982.88
2022-08-17T11:49:54.673Z,99988.31
2022-08-17T11:52:42.204Z,99970.31
2022-08-17T11:55:54.281Z,99995.19
2022-08-17T11:58:41.261Z,99991.94
2022-08-17T12:01:13.572Z,99988.34
2022-08-17T12:03:55.826Z,99983.53
2022-08-17T12:06:45.391Z,99982.06
2022-08-17T12:09:18.798Z,99961.31
2022-08-17T12:12:01.666Z,99947.94
2022-08-17T12:17:39.542Z,99974.28
2022-08-17T12:20:17.354Z,99971.50
2022-08-17T12:22:57.712Z,99966.94
2022-08-17T12:25:34.214Z,99942.53
2022-08-17T12:28:06.540Z,99972.75
2022-08-17T12:30:37.967Z,99955.88
2022-08-17T12:33:25.061Z,99966.09
2022-08-17T12:36:04.205Z,99950.47
2022-08-17T12:38:36.321Z,99949.28
2022-08-17T12:41:21.246Z,99955.16
2022-08-17T12:44:01.781Z,99927.56
2022-08-17T12:46:33.758Z,99912.31
2022-08-17T12:49:18.574Z,99953.31
2022-08-17T12:51:49.286Z,99935.03
2022-08-17T12:54:31.597Z,99938.09
2022-08-17T12:57:06.714Z,99940.63
2022-08-17T12:59:35.377Z,99898.63
2022-08-17T13:02:04.142Z,99919.66
2022-08-17T13:04:33.281Z,99913.09
2022-08-17T13:07:03.319Z,99945.16
2022-08-17T13:09:35.830Z,99906.78
2022-08-17T13:12:09.577Z,99912.78
2022-08-17T13:14:38.702Z,99940.97
2022-08-17T13:17:13.287Z,99887.84
2022-08-17T13:19:51.472Z,99931.94
2022-08-17T13:22:24.846Z,99900.25
2022-08-17T13:25:02.311Z,99942.09
2022-08-17T13:27:32.353Z,99904.28
2022-08-17T13:30:03.992Z,99901.75
2022-08-17T13:32:43.616Z,99882.03
2022-08-17T13:35:48.302Z,99922.50
2022-08-17T13:38:41.275Z,99920.09
2022-08-17T13:41:29.909Z,99926.75
2022-08-17T13:43:58.503Z,99851.31
2022-08-17T13:46:32.378Z,99860.94
2022-08-17T13:49:04.456Z,99915.47
2022-08-17T13:51:36.329Z,99923.06
2022-08-17T13:54:24.598Z,99884.44
2022-08-17T13:57:02.445Z,99925.13
2022-08-17T13:59:55.268Z,99909.66
2022-08-17T14:02:26.106Z,99912.19
2022-08-17T14:05:00.753Z,99916.06
2022-08-17T14:07:35.259Z,99910.22
2022-08-17T14:10:12.269Z,99885.16
2022-08-17T14:12:43.748Z,99884.38
2022-08-17T14:15:14.353Z,99924.91
2022-08-17T14:17:42.904Z,99921.31
2022-08-17T14:20:13.726Z,99915.94
2022-08-17T14:22:46.381Z,99852.44
2022-08-17T14:25:19.816Z,99897.19
2022-08-17T14:27:52.959Z,99912.03
2022-08-17T14:30:25.647Z,99907.31
2022-08-17T14:32:58.239Z,99907.41
2022-08-17T14:35:28.254Z,99900.56
2022-08-17T14:37:57.132Z,99896.38
2022-08-17T14:40:28.236Z,99903.00
2022-08-17T14:42:58.088Z,99898.47
2022-08-17T14:45:33.016Z,99853.00
2022-08-17T14:48:05.875Z,99867.47
2022-08-17T14:50:35.942Z,99905.75
2022-08-17T14:53:06.091Z,99855.75
2022-08-17T14:55:40.969Z,99872.19
2022-08-17T14:58:10.302Z,99862.47
2022-08-17T15:00:40.015Z,99888.75
2022-08-17T15:03:08.508Z,99902.91
2022-08-17T15:05:39.128Z,99892.59
2022-08-17T15:08:08.461Z,99864.50
2022-08-17T15:10:37.391Z,99873.56
2022-08-17T15:13:16.391Z,99857.69
2022-08-17T15:15:45.040Z,99865.63
2022-08-17T15:18:13.702Z,99879.44
2022-08-17T15:20:43.048Z,99887.44
2022-08-17T15:23:14.278Z,99842.31
2022-08-17T15:25:43.986Z,99842.31
2022-08-17T15:28:13.919Z,99874.09
2022-08-17T15:30:44.999Z,99818.69
2022-08-17T15:33:18.742Z,99884.50
2022-08-17T15:35:51.393Z,99854.94
2022-08-17T15:38:19.874Z,99857.47
2022-08-17T15:40:50.460Z,99842.75
2022-08-17T15:43:27.705Z,99879.78
2022-08-17T15:46:01.926Z,99872.00
2022-08-17T15:48:42.352Z,99871.75
2022-08-17T15:51:13.325Z,99859.19
2022-08-17T15:53:43.232Z,99843.75
2022-08-17T15:56:13.794Z,99873.97
2022-08-17T15:58:46.810Z,99864.00
2022-08-17T16:02:21.584Z,99869.66
2022-08-17T16:04:07.168Z,99889.28
2022-08-17T16:06:54.823Z,99861.53
2022-08-17T16:09:23.426Z,99819.41
2022-08-17T16:11:55.074Z,99875.28
2022-08-17T16:14:32.546Z,99885.56
2022-08-17T16:17:03.685Z,99863.38
2022-08-17T16:19:32.692Z,99887.75
2022-08-17T16:22:01.765Z,99867.53
2022-08-17T16:24:30.356Z,99882.56
2022-08-17T16:26:59.211Z,99878.94
2022-08-17T16:29:29.654Z,99879.81
2022-08-17T16:31:58.747Z,99871.66
2022-08-17T16:34:27.261Z,99864.69
2022-08-17T16:36:56.640Z,99871.84
2022-08-17T16:39:27.353Z,99846.78
2022-08-17T16:41:56.387Z,99872.94
2022-08-17T16:44:26.029Z,99880.09
2022-08-17T16:46:56.151Z,99854.00
2022-08-17T16:49:42.366Z,99865.16
2022-08-17T16:52:33.062Z,99826.91
2022-08-17T16:55:04.298Z,99850.00
2022-08-17T16:57:47.484Z,99827.75
2022-08-17T17:00:34.131Z,99845.22
2022-08-17T17:03:19.743Z,99800.78
2022-08-17T17:06:18.616Z,99863.94
2022-08-17T17:09:06.161Z,99852.59
2022-08-17T17:13:02.369Z,99877.53
2022-08-17T20:00:27.261Z,99910.22
2022-08-17T20:03:05.629Z,99956.59
2022-08-17T20:06:08.518Z,99949.97
2022-08-17T20:08:30.654Z,99903.31
2022-08-17T20:11:03.891Z,99881.47
2022-08-17T20:13:40.030Z,99880.16
2022-08-17T20:16:11.852Z,99968.47
2022-08-17T20:18:51.568Z,99962.44
2022-08-17T20:21:26.179Z,99974.44
2022-08-17T20:24:01.062Z,99979.66
2022-08-17T20:26:49.223Z,99930.59
2022-08-17T20:29:39.824Z,99953.31
2022-08-17T20:32:22.414Z,99959.59
2022-08-17T20:35:06.900Z,99979.31
2022-08-17T20:37:38.358Z,99950.47
2022-08-17T20:40:21.480Z,100006.03
2022-08-17T20:42:50.339Z,100005.03
2022-08-17T20:45:52.957Z,100002.53
2022-08-17T20:48:38.778Z,99954.41
2022-08-17T20:51:23.944Z,99959.22
2022-08-17T20:54:31.537Z,99931.56
2022-08-17T20:57:01.799Z,99940.47
2022-08-17T21:00:14.856Z,100013.50
2022-08-17T21:02:45.788Z,100003.44
2022-08-17T21:05:38.765Z,99935.91
2022-08-17T21:08:16.725Z,99987.94
2022-08-17T21:10:48.257Z,99983.66
2022-08-17T21:13:56.915Z,100011.88
2022-08-17T21:16:41.580Z,100028.97
2022-08-17T21:19:22.601Z,100020.50
2022-08-17T21:22:07.654Z,99980.47
2022-08-17T21:24:48.921Z,100037.31
2022-08-17T21:27:30.524Z,99984.75
2022-08-17T21:30:22.033Z,100022.50
2022-08-17T21:33:25.240Z,100046.28
2022-08-17T21:36:15.798Z,100009.38
2022-08-17T21:39:04.243Z,99998.97
2022-08-17T21:41:35.989Z,100052.34
2022-08-17T21:44:31.583Z,99985.41
2022-08-17T21:47:16.073Z,100049.09
2022-08-17T21:49:44.825Z,100046.75
2022-08-17T21:52:15.857Z,99998.69
2022-08-17T21:54:51.998Z,100043.38
2022-08-17T21:57:23.453Z,100051.97
2022-08-17T22:00:15.704Z,100019.50
2022-08-17T22:02:44.661Z,100004.34
2022-08-17T22:05:16.982Z,100047.78
2022-08-17T22:07:47.841Z,100014.34
2022-08-17T22:10:32.985Z,100017.81
2022-08-17T22:13:16.854Z,100052.81
2022-08-17T22:15:48.125Z,100053.78
2022-08-17T22:18:21.526Z,99967.66
2022-08-17T22:20:52.768Z,99998.81
2022-08-17T22:23:45.092Z,99978.56
2022-08-17T22:26:17.695Z,100038.22
2022-08-17T22:28:49.089Z,99993.59
2022-08-17T22:31:20.010Z,100073.50
2022-08-17T22:33:51.357Z,100028.19
2022-08-17T22:36:30.490Z,100024.16
2022-08-17T22:39:01.813Z,99998.81
2022-08-17T22:41:46.674Z,99967.59
2022-08-17T22:44:19.386Z,99982.84
2022-08-17T22:46:56.909Z,99993.63
2022-08-17T22:49:32.285Z,100071.88
2022-08-17T22:52:06.906Z,99991.22
2022-08-17T22:54:49.531Z,100080.28
2022-08-17T22:57:41.611Z,100033.44
2022-08-17T23:00:37.480Z,99993.00
2022-08-17T23:03:16.555Z,100018.19
2022-08-17T23:05:48.571Z,100086.25
2022-08-17T23:08:21.542Z,100076.03
2022-08-17T23:10:50.733Z,100076.69
2022-08-17T23:14:33.371Z,99960.88
2022-08-17T23:17:33.885Z,100054.78
2022-08-17T23:20:26.938Z,100006.88
2022-08-17T23:22:57.453Z,100006.22
2022-08-17T23:25:31.808Z,99993.09
2022-08-17T23:28:02.586Z,100054.66
2022-08-17T23:30:35.540Z,100039.59
2022-08-17T23:33:07.122Z,100047.56
2022-08-17T23:35:38.913Z,99989.69
2022-08-17T23:38:10.500Z,100058.41
2022-08-17T23:40:39.958Z,100095.16
2022-08-17T23:43:16.646Z,100086.00
2022-08-17T23:45:55.717Z,100062.41
2022-08-17T23:48:28.597Z,100099.59
2022-08-17T23:51:10.025Z,100097.63
2022-08-17T23:53:42.619Z,100073.66
2022-08-17T23:56:15.452Z,100061.13
2022-08-17T23:58:45.148Z,100033.06
